sensor_id;sensor_type;location;lat;lon;timestamp;P1;durP1;ratioP1;P2;durP2;ratioP2
17424;SDS011;8830;50.978;5.058;2022-11-11T00:01:05;19.07;;;8.40;;
17424;SDS011;8830;50.978;5.058;2022-11-11T00:03:33;8.07;;;7.27;;
17424;SDS011;8830;50.978;5.058;2022-11-11T00:06:00;12.60;;;7.80;;
17424;SDS011;8830;50.978;5.058;2022-11-11T00:08:28;9.97;;;8.40;;
17424;SDS011;8830;50.978;5.058;2022-11-11T00:10:59;10.27;;;8.73;;
17424;SDS011;8830;50.978;5.058;2022-11-11T00:13:27;11.97;;;8.30;;
17424;SDS011;8830;50.978;5.058;2022-11-11T00:15:54;11.73;;;8.63;;
17424;SDS011;8830;50.978;5.058;2022-11-11T00:18:24;12.27;;;8.70;;
17424;SDS011;8830;50.978;5.058;2022-11-11T00:21:12;8.20;;;7.20;;
17424;SDS011;8830;50.978;5.058;2022-11-11T00:23:57;10.13;;;8.13;;
17424;SDS011;8830;50.978;5.058;2022-11-11T00:26:41;10.30;;;8.10;;
17424;SDS011;8830;50.978;5.058;2022-11-11T00:29:08;9.60;;;8.50;;
17424;SDS011;8830;50.978;5.058;2022-11-11T00:31:35;12.77;;;9.07;;
17424;SDS011;8830;50.978;5.058;2022-11-11T00:34:24;15.57;;;8.30;;
17424;SDS011;8830;50.978;5.058;2022-11-11T00:36:52;10.17;;;9.17;;
17424;SDS011;8830;50.978;5.058;2022-11-11T00:39:18;14.07;;;8.33;;
17424;SDS011;8830;50.978;5.058;2022-11-11T00:41:45;10.60;;;8.40;;
17424;SDS011;8830;50.978;5.058;2022-11-11T00:44:12;9.40;;;8.50;;
17424;SDS011;8830;50.978;5.058;2022-11-11T00:46:39;10.57;;;8.43;;
17424;SDS011;8830;50.978;5.058;2022-11-11T00:49:25;9.20;;;7.93;;
17424;SDS011;8830;50.978;5.058;2022-11-11T00:52:09;13.30;;;9.00;;
17424;SDS011;8830;50.978;5.058;2022-11-11T00:54:36;9.70;;;8.73;;
17424;SDS011;8830;50.978;5.058;2022-11-11T00:57:03;13.07;;;8.93;;
17424;SDS011;8830;50.978;5.058;2022-11-11T00:59:32;9.57;;;8.07;;
17424;SDS011;8830;50.978;5.058;2022-11-11T01:01:59;8.73;;;7.83;;
17424;SDS011;8830;50.978;5.058;2022-11-11T01:04:27;10.03;;;8.57;;
17424;SDS011;8830;50.978;5.058;2022-11-11T01:06:54;9.37;;;8.37;;
17424;SDS011;8830;50.978;5.058;2022-11-11T01:09:21;10.70;;;8.63;;
17424;SDS011;8830;50.978;5.058;2022-11-11T01:11:48;10.10;;;8.17;;
17424;SDS011;8830;50.978;5.058;2022-11-11T01:14:16;11.37;;;9.03;;
17424;SDS011;8830;50.978;5.058;2022-11-11T01:16:43;10.63;;;9.30;;
17424;SDS011;8830;50.978;5.058;2022-11-11T01:19:10;12.90;;;9.20;;
17424;SDS011;8830;50.978;5.058;2022-11-11T01:21:43;10.47;;;8.60;;
17424;SDS011;8830;50.978;5.058;2022-11-11T01:24:09;9.70;;;8.80;;
17424;SDS011;8830;50.978;5.058;2022-11-11T01:26:37;9.23;;;8.33;;
17424;SDS011;8830;50.978;5.058;2022-11-11T01:29:04;12.60;;;8.70;;
17424;SDS011;8830;50.978;5.058;2022-11-11T01:31:31;11.90;;;9.13;;
17424;SDS011;8830;50.978;5.058;2022-11-11T01:33:58;11.13;;;8.60;;
17424;SDS011;8830;50.978;5.058;2022-11-11T01:36:25;10.57;;;8.77;;
17424;SDS011;8830;50.978;5.058;2022-11-11T01:38:55;9.73;;;8.70;;
17424;SDS011;8830;50.978;5.058;2022-11-11T01:41:25;13.20;;;9.30;;
17424;SDS011;8830;50.978;5.058;2022-11-11T01:44:01;14.60;;;9.10;;
17424;SDS011;8830;50.978;5.058;2022-11-11T01:46:40;10.33;;;8.10;;
17424;SDS011;8830;50.978;5.058;2022-11-11T01:49:18;11.53;;;8.90;;
17424;SDS011;8830;50.978;5.058;2022-11-11T01:51:48;9.60;;;8.70;;
17424;SDS011;8830;50.978;5.058;2022-11-11T01:54:21;13.63;;;8.87;;
17424;SDS011;8830;50.978;5.058;2022-11-11T01:56:54;9.87;;;8.40;;
17424;SDS011;8830;50.978;5.058;2022-11-11T01:59:27;11.40;;;9.00;;
17424;SDS011;8830;50.978;5.058;2022-11-11T02:01:57;10.00;;;8.60;;
17424;SDS011;8830;50.978;5.058;2022-11-11T02:04:27;9.83;;;8.83;;
17424;SDS011;8830;50.978;5.058;2022-11-11T02:07:12;9.30;;;8.03;;
17424;SDS011;8830;50.978;5.058;2022-11-11T02:09:41;10.10;;;9.13;;
17424;SDS011;8830;50.978;5.058;2022-11-11T02:12:11;12.20;;;8.70;;
17424;SDS011;8830;50.978;5.058;2022-11-11T02:14:56;9.43;;;8.53;;
17424;SDS011;8830;50.978;5.058;2022-11-11T02:17:26;11.67;;;10.07;;
17424;SDS011;8830;50.978;5.058;2022-11-11T02:19:57;15.63;;;11.00;;
17424;SDS011;8830;50.978;5.058;2022-11-11T02:22:32;10.40;;;8.87;;
17424;SDS011;8830;50.978;5.058;2022-11-11T02:25:09;12.87;;;10.23;;
17424;SDS011;8830;50.978;5.058;2022-11-11T02:27:40;9.70;;;8.73;;
17424;SDS011;8830;50.978;5.058;2022-11-11T02:30:10;14.67;;;10.87;;
17424;SDS011;8830;50.978;5.058;2022-11-11T02:32:42;11.07;;;9.30;;
17424;SDS011;8830;50.978;5.058;2022-11-11T02:35:12;9.40;;;8.50;;
17424;SDS011;8830;50.978;5.058;2022-11-11T02:37:42;15.03;;;9.23;;
17424;SDS011;8830;50.978;5.058;2022-11-11T02:40:15;10.63;;;9.20;;
17424;SDS011;8830;50.978;5.058;2022-11-11T02:42:44;12.43;;;8.83;;
17424;SDS011;8830;50.978;5.058;2022-11-11T02:45:10;10.03;;;8.53;;
17424;SDS011;8830;50.978;5.058;2022-11-11T02:47:38;9.60;;;8.73;;
17424;SDS011;8830;50.978;5.058;2022-11-11T02:50:05;9.50;;;8.60;;
17424;SDS011;8830;50.978;5.058;2022-11-11T02:52:32;8.93;;;8.03;;
17424;SDS011;8830;50.978;5.058;2022-11-11T02:55:00;11.83;;;8.57;;
17424;SDS011;8830;50.978;5.058;2022-11-11T02:57:29;12.57;;;9.87;;
17424;SDS011;8830;50.978;5.058;2022-11-11T02:59:57;12.23;;;11.13;;
17424;SDS011;8830;50.978;5.058;2022-11-11T03:02:26;24.53;;;19.63;;
17424;SDS011;8830;50.978;5.058;2022-11-11T03:04:54;14.40;;;12.77;;
17424;SDS011;8830;50.978;5.058;2022-11-11T03:07:22;14.53;;;10.63;;
17424;SDS011;8830;50.978;5.058;2022-11-11T03:09:50;18.17;;;11.67;;
17424;SDS011;8830;50.978;5.058;2022-11-11T03:12:17;14.77;;;11.40;;
17424;SDS011;8830;50.978;5.058;2022-11-11T03:14:45;11.53;;;10.43;;
17424;SDS011;8830;50.978;5.058;2022-11-11T03:17:12;11.07;;;9.90;;
17424;SDS011;8830;50.978;5.058;2022-11-11T03:19:57;11.97;;;9.77;;
17424;SDS011;8830;50.978;5.058;2022-11-11T03:22:38;11.60;;;9.93;;
17424;SDS011;8830;50.978;5.058;2022-11-11T03:25:05;14.37;;;10.10;;
17424;SDS011;8830;50.978;5.058;2022-11-11T03:28:05;11.63;;;9.80;;
17424;SDS011;8830;50.978;5.058;2022-11-11T03:30:36;10.77;;;9.53;;
17424;SDS011;8830;50.978;5.058;2022-11-11T03:33:04;13.60;;;10.17;;
17424;SDS011;8830;50.978;5.058;2022-11-11T03:35:31;12.47;;;10.77;;
17424;SDS011;8830;50.978;5.058;2022-11-11T03:37:59;12.63;;;10.83;;
17424;SDS011;8830;50.978;5.058;2022-11-11T03:40:40;11.93;;;10.67;;
17424;SDS011;8830;50.978;5.058;2022-11-11T03:43:08;21.20;;;14.03;;
17424;SDS011;8830;50.978;5.058;2022-11-11T03:45:38;17.87;;;12.67;;
17424;SDS011;8830;50.978;5.058;2022-11-11T03:48:05;20.87;;;14.20;;
17424;SDS011;8830;50.978;5.058;2022-11-11T03:50:33;19.17;;;14.63;;
17424;SDS011;8830;50.978;5.058;2022-11-11T03:53:00;26.67;;;18.77;;
17424;SDS011;8830;50.978;5.058;2022-11-11T03:55:27;23.60;;;17.67;;
17424;SDS011;8830;50.978;5.058;2022-11-11T03:57:55;21.13;;;15.33;;
17424;SDS011;8830;50.978;5.058;2022-11-11T04:00:22;20.80;;;14.90;;
17424;SDS011;8830;50.978;5.058;2022-11-11T04:02:55;21.57;;;14.40;;
17424;SDS011;8830;50.978;5.058;2022-11-11T04:05:44;17.43;;;12.80;;
17424;SDS011;8830;50.978;5.058;2022-11-11T04:08:29;18.53;;;13.20;;
17424;SDS011;8830;50.978;5.058;2022-11-11T04:11:14;18.93;;;13.80;;
17424;SDS011;8830;50.978;5.058;2022-11-11T04:13:46;16.80;;;13.37;;
17424;SDS011;8830;50.978;5.058;2022-11-11T04:16:40;17.83;;;13.60;;
17424;SDS011;8830;50.978;5.058;2022-11-11T04:19:09;16.37;;;13.23;;
17424;SDS011;8830;50.978;5.058;2022-11-11T04:21:53;22.30;;;13.07;;
17424;SDS011;8830;50.978;5.058;2022-11-11T04:24:20;15.27;;;12.53;;
17424;SDS011;8830;50.978;5.058;2022-11-11T04:27:06;15.10;;;12.10;;
17424;SDS011;8830;50.978;5.058;2022-11-11T04:29:35;17.70;;;13.03;;
17424;SDS011;8830;50.978;5.058;2022-11-11T04:32:02;14.67;;;12.10;;
17424;SDS011;8830;50.978;5.058;2022-11-11T04:34:50;13.50;;;12.13;;
17424;SDS011;8830;50.978;5.058;2022-11-11T04:37:18;14.17;;;12.13;;
17424;SDS011;8830;50.978;5.058;2022-11-11T04:39:46;15.80;;;12.30;;
17424;SDS011;8830;50.978;5.058;2022-11-11T04:42:31;16.43;;;12.80;;
17424;SDS011;8830;50.978;5.058;2022-11-11T04:44:59;18.57;;;13.20;;
17424;SDS011;8830;50.978;5.058;2022-11-11T04:47:54;15.37;;;12.73;;
17424;SDS011;8830;50.978;5.058;2022-11-11T04:50:24;20.10;;;12.23;;
17424;SDS011;8830;50.978;5.058;2022-11-11T04:52:53;16.73;;;12.80;;
17424;SDS011;8830;50.978;5.058;2022-11-11T04:55:20;17.07;;;12.90;;
17424;SDS011;8830;50.978;5.058;2022-11-11T04:58:05;13.47;;;11.47;;
17424;SDS011;8830;50.978;5.058;2022-11-11T05:00:34;13.20;;;10.53;;
17424;SDS011;8830;50.978;5.058;2022-11-11T05:03:01;14.23;;;11.97;;
17424;SDS011;8830;50.978;5.058;2022-11-11T05:05:45;14.50;;;10.93;;
17424;SDS011;8830;50.978;5.058;2022-11-11T05:08:30;15.07;;;11.27;;
17424;SDS011;8830;50.978;5.058;2022-11-11T05:11:16;14.33;;;10.70;;
17424;SDS011;8830;50.978;5.058;2022-11-11T05:13:45;16.87;;;11.40;;
17424;SDS011;8830;50.978;5.058;2022-11-11T05:16:32;16.03;;;11.43;;
17424;SDS011;8830;50.978;5.058;2022-11-11T05:19:19;16.73;;;11.23;;
17424;SDS011;8830;50.978;5.058;2022-11-11T05:22:08;13.33;;;11.50;;
17424;SDS011;8830;50.978;5.058;2022-11-11T05:24:38;12.53;;;11.27;;
17424;SDS011;8830;50.978;5.058;2022-11-11T05:27:24;13.53;;;10.00;;
17424;SDS011;8830;50.978;5.058;2022-11-11T05:29:51;16.77;;;11.60;;
17424;SDS011;8830;50.978;5.058;2022-11-11T05:32:18;13.80;;;10.20;;
17424;SDS011;8830;50.978;5.058;2022-11-11T05:34:47;13.60;;;10.23;;
17424;SDS011;8830;50.978;5.058;2022-11-11T05:37:15;12.67;;;11.23;;
17424;SDS011;8830;50.978;5.058;2022-11-11T05:39:43;15.30;;;10.43;;
17424;SDS011;8830;50.978;5.058;2022-11-11T05:42:10;11.37;;;10.17;;
17424;SDS011;8830;50.978;5.058;2022-11-11T05:44:37;12.57;;;9.83;;
17424;SDS011;8830;50.978;5.058;2022-11-11T05:47:04;14.80;;;10.70;;
17424;SDS011;8830;50.978;5.058;2022-11-11T05:49:31;15.43;;;10.87;;
17424;SDS011;8830;50.978;5.058;2022-11-11T05:51:59;13.33;;;10.50;;
17424;SDS011;8830;50.978;5.058;2022-11-11T05:54:28;13.93;;;10.33;;
17424;SDS011;8830;50.978;5.058;2022-11-11T05:56:55;10.40;;;8.40;;
17424;SDS011;8830;50.978;5.058;2022-11-11T05:59:22;9.53;;;7.97;;
17424;SDS011;8830;50.978;5.058;2022-11-11T06:01:49;9.63;;;8.33;;
17424;SDS011;8830;50.978;5.058;2022-11-11T06:04:16;13.90;;;8.87;;
17424;SDS011;8830;50.978;5.058;2022-11-11T06:06:43;9.40;;;8.50;;
17424;SDS011;8830;50.978;5.058;2022-11-11T06:09:10;8.87;;;7.97;;
17424;SDS011;8830;50.978;5.058;2022-11-11T06:11:39;10.87;;;8.00;;
17424;SDS011;8830;50.978;5.058;2022-11-11T06:14:06;12.67;;;8.60;;
17424;SDS011;8830;50.978;5.058;2022-11-11T06:16:33;14.77;;;9.03;;
17424;SDS011;8830;50.978;5.058;2022-11-11T06:19:00;10.30;;;9.17;;
17424;SDS011;8830;50.978;5.058;2022-11-11T06:21:28;12.40;;;9.10;;
17424;SDS011;8830;50.978;5.058;2022-11-11T06:23:56;11.63;;;9.07;;
17424;SDS011;8830;50.978;5.058;2022-11-11T06:26:23;13.40;;;9.73;;
17424;SDS011;8830;50.978;5.058;2022-11-11T06:28:52;12.10;;;9.60;;
17424;SDS011;8830;50.978;5.058;2022-11-11T06:31:21;14.70;;;10.30;;
17424;SDS011;8830;50.978;5.058;2022-11-11T06:33:49;11.50;;;9.17;;
17424;SDS011;8830;50.978;5.058;2022-11-11T06:36:17;12.03;;;10.33;;
17424;SDS011;8830;50.978;5.058;2022-11-11T06:38:45;11.20;;;9.50;;
17424;SDS011;8830;50.978;5.058;2022-11-11T06:41:13;9.97;;;9.07;;
17424;SDS011;8830;50.978;5.058;2022-11-11T06:43:41;10.57;;;8.77;;
17424;SDS011;8830;50.978;5.058;2022-11-11T06:46:11;13.20;;;9.87;;
17424;SDS011;8830;50.978;5.058;2022-11-11T06:48:44;11.10;;;8.80;;
17424;SDS011;8830;50.978;5.058;2022-11-11T06:51:11;10.63;;;9.47;;
17424;SDS011;8830;50.978;5.058;2022-11-11T06:53:42;10.00;;;9.00;;
17424;SDS011;8830;50.978;5.058;2022-11-11T06:56:12;9.87;;;8.87;;
17424;SDS011;8830;50.978;5.058;2022-11-11T06:58:40;9.77;;;8.77;;
17424;SDS011;8830;50.978;5.058;2022-11-11T07:01:08;10.43;;;9.27;;
17424;SDS011;8830;50.978;5.058;2022-11-11T07:03:38;10.80;;;8.70;;
17424;SDS011;8830;50.978;5.058;2022-11-11T07:06:05;9.43;;;8.47;;
17424;SDS011;8830;50.978;5.058;2022-11-11T07:08:32;10.50;;;8.77;;
17424;SDS011;8830;50.978;5.058;2022-11-11T07:11:00;10.07;;;8.77;;
17424;SDS011;8830;50.978;5.058;2022-11-11T07:13:27;9.37;;;8.20;;
17424;SDS011;8830;50.978;5.058;2022-11-11T07:15:54;8.93;;;8.13;;
17424;SDS011;8830;50.978;5.058;2022-11-11T07:18:23;9.63;;;8.00;;
17424;SDS011;8830;50.978;5.058;2022-11-11T07:20:51;9.63;;;8.47;;
17424;SDS011;8830;50.978;5.058;2022-11-11T07:23:18;8.50;;;7.60;;
17424;SDS011;8830;50.978;5.058;2022-11-11T07:25:47;8.53;;;7.07;;
17424;SDS011;8830;50.978;5.058;2022-11-11T07:28:15;8.17;;;7.37;;
17424;SDS011;8830;50.978;5.058;2022-11-11T07:30:43;7.97;;;7.07;;
17424;SDS011;8830;50.978;5.058;2022-11-11T07:33:11;10.07;;;6.70;;
17424;SDS011;8830;50.978;5.058;2022-11-11T07:35:40;7.27;;;6.57;;
17424;SDS011;8830;50.978;5.058;2022-11-11T07:38:08;7.37;;;6.67;;
17424;SDS011;8830;50.978;5.058;2022-11-11T07:40:35;6.80;;;6.30;;
17424;SDS011;8830;50.978;5.058;2022-11-11T07:43:06;6.50;;;5.90;;
17424;SDS011;8830;50.978;5.058;2022-11-11T07:45:35;6.27;;;5.67;;
17424;SDS011;8830;50.978;5.058;2022-11-11T07:48:03;6.27;;;5.17;;
17424;SDS011;8830;50.978;5.058;2022-11-11T07:50:32;7.07;;;5.20;;
17424;SDS011;8830;50.978;5.058;2022-11-11T07:53:01;5.77;;;5.17;;
17424;SDS011;8830;50.978;5.058;2022-11-11T07:55:29;4.67;;;4.27;;
17424;SDS011;8830;50.978;5.058;2022-11-11T07:57:56;4.47;;;4.00;;
17424;SDS011;8830;50.978;5.058;2022-11-11T08:00:24;5.23;;;4.10;;
17424;SDS011;8830;50.978;5.058;2022-11-11T08:02:51;5.30;;;3.70;;
17424;SDS011;8830;50.978;5.058;2022-11-11T08:05:18;3.80;;;3.37;;
17424;SDS011;8830;50.978;5.058;2022-11-11T08:07:45;5.00;;;3.77;;
17424;SDS011;8830;50.978;5.058;2022-11-11T08:10:14;4.33;;;3.73;;
17424;SDS011;8830;50.978;5.058;2022-11-11T08:12:43;4.20;;;3.33;;
17424;SDS011;8830;50.978;5.058;2022-11-11T08:15:28;4.30;;;3.07;;
17424;SDS011;8830;50.978;5.058;2022-11-11T08:17:55;3.73;;;3.10;;
17424;SDS011;8830;50.978;5.058;2022-11-11T08:20:23;4.97;;;3.30;;
17424;SDS011;8830;50.978;5.058;2022-11-11T08:22:50;4.00;;;3.30;;
17424;SDS011;8830;50.978;5.058;2022-11-11T08:25:20;4.20;;;3.20;;
17424;SDS011;8830;50.978;5.058;2022-11-11T08:27:48;4.07;;;2.70;;
17424;SDS011;8830;50.978;5.058;2022-11-11T08:30:16;4.27;;;3.20;;
17424;SDS011;8830;50.978;5.058;2022-11-11T08:32:45;3.03;;;2.73;;
17424;SDS011;8830;50.978;5.058;2022-11-11T08:35:12;5.10;;;3.03;;
17424;SDS011;8830;50.978;5.058;2022-11-11T08:37:41;5.33;;;2.20;;
17424;SDS011;8830;50.978;5.058;2022-11-11T08:40:08;2.70;;;2.50;;
17424;SDS011;8830;50.978;5.058;2022-11-11T08:42:41;2.80;;;2.40;;
17424;SDS011;8830;50.978;5.058;2022-11-11T08:45:08;2.50;;;2.23;;
17424;SDS011;8830;50.978;5.058;2022-11-11T08:47:36;4.30;;;2.80;;
17424;SDS011;8830;50.978;5.058;2022-11-11T08:50:04;2.50;;;2.30;;
17424;SDS011;8830;50.978;5.058;2022-11-11T08:52:32;2.60;;;2.40;;
17424;SDS011;8830;50.978;5.058;2022-11-11T08:55:00;3.97;;;2.70;;
17424;SDS011;8830;50.978;5.058;2022-11-11T08:57:28;3.63;;;2.57;;
17424;SDS011;8830;50.978;5.058;2022-11-11T09:00:05;3.87;;;2.63;;
17424;SDS011;8830;50.978;5.058;2022-11-11T09:02:48;3.00;;;2.70;;
17424;SDS011;8830;50.978;5.058;2022-11-11T09:05:16;2.77;;;2.50;;
17424;SDS011;8830;50.978;5.058;2022-11-11T09:07:43;2.33;;;2.13;;
17424;SDS011;8830;50.978;5.058;2022-11-11T09:10:11;3.73;;;2.10;;
17424;SDS011;8830;50.978;5.058;2022-11-11T09:12:47;2.20;;;2.00;;
17424;SDS011;8830;50.978;5.058;2022-11-11T09:15:15;2.73;;;1.90;;
17424;SDS011;8830;50.978;5.058;2022-11-11T09:17:45;4.07;;;2.00;;
17424;SDS011;8830;50.978;5.058;2022-11-11T09:20:12;2.00;;;1.90;;
17424;SDS011;8830;50.978;5.058;2022-11-11T09:22:42;2.30;;;2.10;;
17424;SDS011;8830;50.978;5.058;2022-11-11T09:25:12;5.10;;;2.30;;
17424;SDS011;8830;50.978;5.058;2022-11-11T09:27:41;2.30;;;2.10;;
17424;SDS011;8830;50.978;5.058;2022-11-11T09:30:09;2.40;;;2.10;;
17424;SDS011;8830;50.978;5.058;2022-11-11T09:32:42;3.77;;;2.50;;
17424;SDS011;8830;50.978;5.058;2022-11-11T09:35:09;2.90;;;2.60;;
17424;SDS011;8830;50.978;5.058;2022-11-11T09:37:36;2.87;;;2.53;;
17424;SDS011;8830;50.978;5.058;2022-11-11T09:40:04;2.83;;;2.63;;
17424;SDS011;8830;50.978;5.058;2022-11-11T09:42:32;2.17;;;1.97;;
17424;SDS011;8830;50.978;5.058;2022-11-11T09:45:08;2.87;;;2.27;;
17424;SDS011;8830;50.978;5.058;2022-11-11T09:47:47;3.43;;;3.13;;
17424;SDS011;8830;50.978;5.058;2022-11-11T09:50:21;3.47;;;3.10;;
17424;SDS011;8830;50.978;5.058;2022-11-11T09:52:51;2.40;;;2.20;;
17424;SDS011;8830;50.978;5.058;2022-11-11T09:55:26;4.27;;;2.10;;
17424;SDS011;8830;50.978;5.058;2022-11-11T09:58:00;3.27;;;1.83;;
17424;SDS011;8830;50.978;5.058;2022-11-11T10:00:31;2.20;;;1.97;;
17424;SDS011;8830;50.978;5.058;2022-11-11T10:03:05;2.13;;;1.93;;
17424;SDS011;8830;50.978;5.058;2022-11-11T10:05:40;2.23;;;1.97;;
17424;SDS011;8830;50.978;5.058;2022-11-11T10:08:13;2.73;;;2.30;;
17424;SDS011;8830;50.978;5.058;2022-11-11T10:10:43;3.23;;;1.97;;
17424;SDS011;8830;50.978;5.058;2022-11-11T10:13:12;2.70;;;2.10;;
17424;SDS011;8830;50.978;5.058;2022-11-11T10:15:45;2.30;;;1.80;;
17424;SDS011;8830;50.978;5.058;2022-11-11T10:18:31;3.00;;;2.10;;
17424;SDS011;8830;50.978;5.058;2022-11-11T10:21:10;3.13;;;2.23;;
17424;SDS011;8830;50.978;5.058;2022-11-11T10:23:40;3.17;;;2.07;;
17424;SDS011;8830;50.978;5.058;2022-11-11T10:26:14;3.30;;;1.97;;
17424;SDS011;8830;50.978;5.058;2022-11-11T10:28:45;1.70;;;1.60;;
17424;SDS011;8830;50.978;5.058;2022-11-11T10:31:16;2.00;;;1.80;;
17424;SDS011;8830;50.978;5.058;2022-11-11T10:33:49;3.90;;;2.50;;
17424;SDS011;8830;50.978;5.058;2022-11-11T10:36:20;2.50;;;1.87;;
17424;SDS011;8830;50.978;5.058;2022-11-11T10:38:51;2.90;;;2.07;;
17424;SDS011;8830;50.978;5.058;2022-11-11T10:41:25;2.87;;;2.07;;
17424;SDS011;8830;50.978;5.058;2022-11-11T10:43:58;2.93;;;1.70;;
17424;SDS011;8830;50.978;5.058;2022-11-11T10:46:27;1.97;;;1.73;;
17424;SDS011;8830;50.978;5.058;2022-11-11T10:49:04;3.07;;;1.70;;
17424;SDS011;8830;50.978;5.058;2022-11-11T10:51:36;7.50;;;1.80;;
17424;SDS011;8830;50.978;5.058;2022-11-11T10:54:10;1.93;;;1.70;;
17424;SDS011;8830;50.978;5.058;2022-11-11T10:56:42;1.77;;;1.67;;
17424;SDS011;8830;50.978;5.058;2022-11-11T10:59:16;3.50;;;2.03;;
17424;SDS011;8830;50.978;5.058;2022-11-11T11:01:48;3.17;;;2.10;;
17424;SDS011;8830;50.978;5.058;2022-11-11T11:04:28;2.70;;;1.70;;
17424;SDS011;8830;50.978;5.058;2022-11-11T11:07:01;4.00;;;2.17;;
17424;SDS011;8830;50.978;5.058;2022-11-11T11:09:32;2.20;;;1.60;;
17424;SDS011;8830;50.978;5.058;2022-11-11T11:12:04;6.33;;;1.90;;
17424;SDS011;8830;50.978;5.058;2022-11-11T11:14:40;3.20;;;1.93;;
17424;SDS011;8830;50.978;5.058;2022-11-11T11:17:09;1.57;;;1.47;;
17424;SDS011;8830;50.978;5.058;2022-11-11T11:19:43;1.67;;;1.50;;
17424;SDS011;8830;50.978;5.058;2022-11-11T11:22:10;3.93;;;1.80;;
17424;SDS011;8830;50.978;5.058;2022-11-11T11:24:37;2.67;;;1.47;;
17424;SDS011;8830;50.978;5.058;2022-11-11T11:27:05;3.13;;;1.67;;
17424;SDS011;8830;50.978;5.058;2022-11-11T11:29:33;4.47;;;2.07;;
17424;SDS011;8830;50.978;5.058;2022-11-11T11:32:13;1.30;;;1.20;;
17424;SDS011;8830;50.978;5.058;2022-11-11T11:34:44;1.63;;;1.20;;
17424;SDS011;8830;50.978;5.058;2022-11-11T11:37:14;1.33;;;1.10;;
17424;SDS011;8830;50.978;5.058;2022-11-11T11:39:43;3.43;;;1.23;;
17424;SDS011;8830;50.978;5.058;2022-11-11T11:44:54;1.23;;;1.10;;
17424;SDS011;8830;50.978;5.058;2022-11-11T11:47:26;1.83;;;1.30;;
17424;SDS011;8830;50.978;5.058;2022-11-11T11:50:10;1.70;;;1.60;;
17424;SDS011;8830;50.978;5.058;2022-11-11T11:52:50;2.70;;;1.40;;
17424;SDS011;8830;50.978;5.058;2022-11-11T11:55:30;2.43;;;1.00;;
17424;SDS011;8830;50.978;5.058;2022-11-11T11:58:11;1.27;;;1.00;;
17424;SDS011;8830;50.978;5.058;2022-11-11T12:01:07;2.03;;;1.13;;
17424;SDS011;8830;50.978;5.058;2022-11-11T12:06:45;2.17;;;1.00;;
17424;SDS011;8830;50.978;5.058;2022-11-11T12:09:24;1.17;;;1.03;;
17424;SDS011;8830;50.978;5.058;2022-11-11T12:11:59;2.70;;;1.43;;
17424;SDS011;8830;50.978;5.058;2022-11-11T12:14:39;3.17;;;1.47;;
17424;SDS011;8830;50.978;5.058;2022-11-11T12:17:29;1.60;;;1.17;;
17424;SDS011;8830;50.978;5.058;2022-11-11T12:20:03;1.57;;;1.30;;
17424;SDS011;8830;50.978;5.058;2022-11-11T12:22:47;2.93;;;1.20;;
17424;SDS011;8830;50.978;5.058;2022-11-11T12:25:30;3.37;;;1.20;;
17424;SDS011;8830;50.978;5.058;2022-11-11T12:28:08;2.23;;;1.50;;
17424;SDS011;8830;50.978;5.058;2022-11-11T12:30:46;1.87;;;1.30;;
17424;SDS011;8830;50.978;5.058;2022-11-11T12:33:22;1.63;;;1.10;;
17424;SDS011;8830;50.978;5.058;2022-11-11T12:36:12;2.20;;;1.40;;
17424;SDS011;8830;50.978;5.058;2022-11-11T12:38:49;3.00;;;1.40;;
17424;SDS011;8830;50.978;5.058;2022-11-11T12:41:24;1.33;;;1.00;;
17424;SDS011;8830;50.978;5.058;2022-11-11T12:43:59;3.37;;;1.63;;
17424;SDS011;8830;50.978;5.058;2022-11-11T12:46:32;3.57;;;0.90;;
17424;SDS011;8830;50.978;5.058;2022-11-11T12:49:28;2.10;;;1.40;;
17424;SDS011;8830;50.978;5.058;2022-11-11T12:52:12;3.60;;;1.60;;
17424;SDS011;8830;50.978;5.058;2022-11-11T12:54:57;1.60;;;1.43;;
17424;SDS011;8830;50.978;5.058;2022-11-11T12:57:34;3.87;;;1.77;;
17424;SDS011;8830;50.978;5.058;2022-11-11T13:00:11;1.90;;;1.20;;
17424;SDS011;8830;50.978;5.058;2022-11-11T13:03:04;1.50;;;1.40;;
17424;SDS011;8830;50.978;5.058;2022-11-11T13:05:42;3.27;;;1.83;;
17424;SDS011;8830;50.978;5.058;2022-11-11T13:11:28;2.17;;;1.33;;
17424;SDS011;8830;50.978;5.058;2022-11-11T13:14:04;2.67;;;1.40;;
17424;SDS011;8830;50.978;5.058;2022-11-11T13:16:43;2.80;;;1.73;;
17424;SDS011;8830;50.978;5.058;2022-11-11T13:19:10;2.53;;;1.80;;
17424;SDS011;8830;50.978;5.058;2022-11-11T13:21:47;3.80;;;1.47;;
17424;SDS011;8830;50.978;5.058;2022-11-11T13:24:19;2.10;;;1.97;;
17424;SDS011;8830;50.978;5.058;2022-11-11T13:26:51;2.40;;;1.77;;
17424;SDS011;8830;50.978;5.058;2022-11-11T13:29:34;2.13;;;1.40;;
17424;SDS011;8830;50.978;5.058;2022-11-11T13:32:23;3.90;;;1.77;;
17424;SDS011;8830;50.978;5.058;2022-11-11T13:34:54;1.73;;;1.63;;
17424;SDS011;8830;50.978;5.058;2022-11-11T13:37:23;2.90;;;1.53;;
17424;SDS011;8830;50.978;5.058;2022-11-11T13:39:54;3.13;;;1.60;;
17424;SDS011;8830;50.978;5.058;2022-11-11T13:42:30;1.57;;;1.33;;
17424;SDS011;8830;50.978;5.058;2022-11-11T13:45:04;2.30;;;1.97;;
17424;SDS011;8830;50.978;5.058;2022-11-11T13:47:35;2.07;;;1.30;;
17424;SDS011;8830;50.978;5.058;2022-11-11T13:50:05;1.67;;;1.17;;
17424;SDS011;8830;50.978;5.058;2022-11-11T13:52:35;1.77;;;1.50;;
17424;SDS011;8830;50.978;5.058;2022-11-11T13:55:08;1.43;;;1.20;;
17424;SDS011;8830;50.978;5.058;2022-11-11T13:57:51;2.03;;;1.13;;
17424;SDS011;8830;50.978;5.058;2022-11-11T14:00:23;2.67;;;1.40;;
17424;SDS011;8830;50.978;5.058;2022-11-11T14:08:53;2.77;;;1.80;;
17424;SDS011;8830;50.978;5.058;2022-11-11T14:11:28;1.50;;;1.40;;
17424;SDS011;8830;50.978;5.058;2022-11-11T14:17:10;2.43;;;1.60;;
17424;SDS011;8830;50.978;5.058;2022-11-11T14:19:39;4.27;;;1.60;;
17424;SDS011;8830;50.978;5.058;2022-11-11T14:24:54;2.83;;;1.90;;
17424;SDS011;8830;50.978;5.058;2022-11-11T14:27:23;1.60;;;1.50;;
17424;SDS011;8830;50.978;5.058;2022-11-11T14:29:55;1.27;;;1.10;;
17424;SDS011;8830;50.978;5.058;2022-11-11T14:32:36;2.50;;;1.87;;
17424;SDS011;8830;50.978;5.058;2022-11-11T14:35:14;2.87;;;1.40;;
17424;SDS011;8830;50.978;5.058;2022-11-11T14:40:56;5.03;;;1.73;;
17424;SDS011;8830;50.978;5.058;2022-11-11T14:43:33;3.23;;;1.50;;
17424;SDS011;8830;50.978;5.058;2022-11-11T14:46:10;1.43;;;1.30;;
17424;SDS011;8830;50.978;5.058;2022-11-11T14:48:51;3.90;;;1.73;;
17424;SDS011;8830;50.978;5.058;2022-11-11T14:57:20;2.77;;;1.60;;
17424;SDS011;8830;50.978;5.058;2022-11-11T14:59:51;2.57;;;1.97;;
17424;SDS011;8830;50.978;5.058;2022-11-11T15:05:10;2.57;;;1.40;;
17424;SDS011;8830;50.978;5.058;2022-11-11T15:07:45;2.77;;;1.70;;
17424;SDS011;8830;50.978;5.058;2022-11-11T15:10:37;4.63;;;2.30;;
17424;SDS011;8830;50.978;5.058;2022-11-11T15:13:34;3.57;;;2.00;;
17424;SDS011;8830;50.978;5.058;2022-11-11T15:16:22;2.77;;;2.00;;
17424;SDS011;8830;50.978;5.058;2022-11-11T15:19:04;3.53;;;1.90;;
17424;SDS011;8830;50.978;5.058;2022-11-11T15:21:44;2.77;;;1.70;;
17424;SDS011;8830;50.978;5.058;2022-11-11T15:24:20;5.03;;;2.33;;
17424;SDS011;8830;50.978;5.058;2022-11-11T15:27:01;3.77;;;1.70;;
17424;SDS011;8830;50.978;5.058;2022-11-11T15:32:30;5.47;;;2.13;;
17424;SDS011;8830;50.978;5.058;2022-11-11T15:35:12;3.17;;;2.13;;
17424;SDS011;8830;50.978;5.058;2022-11-11T15:37:49;2.00;;;1.80;;
17424;SDS011;8830;50.978;5.058;2022-11-11T15:40:25;3.20;;;2.07;;
17424;SDS011;8830;50.978;5.058;2022-11-11T15:42:57;3.47;;;2.40;;
17424;SDS011;8830;50.978;5.058;2022-11-11T15:45:30;3.60;;;2.40;;
17424;SDS011;8830;50.978;5.058;2022-11-11T15:47:59;5.20;;;2.73;;
17424;SDS011;8830;50.978;5.058;2022-11-11T15:53:02;2.33;;;2.03;;
17424;SDS011;8830;50.978;5.058;2022-11-11T15:55:30;4.47;;;2.50;;
17424;SDS011;8830;50.978;5.058;2022-11-11T15:58:08;2.40;;;2.20;;
17424;SDS011;8830;50.978;5.058;2022-11-11T16:00:37;3.57;;;2.50;;
17424;SDS011;8830;50.978;5.058;2022-11-11T16:03:04;5.20;;;2.80;;